createdAt,value
2022-10-11T00:01:20.149Z,-23397.84
2022-10-11T00:03:46.738Z,-23401.47
2022-10-11T00:06:13.434Z,-23408.25
2022-10-11T00:08:39.998Z,-23393.47
2022-10-11T00:11:08.137Z,-23379.19
2022-10-11T00:13:35.007Z,-23384.25
2022-10-11T00:16:06.714Z,-23395.16
2022-10-11T00:18:33.552Z,-23395.16
2022-10-11T00:21:12.057Z,-23404.88
2022-10-11T00:23:39.456Z,-23410.94
2022-10-11T00:26:08.329Z,-23406.06
2022-10-11T00:28:36.065Z,-23403.66
2022-10-11T00:31:06.325Z,-23399.03
2022-10-11T00:33:33.214Z,-23406.56
2022-10-11T00:36:00.767Z,-23400.25
2022-10-11T00:38:27.374Z,-23387.66
2022-10-11T00:40:53.904Z,-23398.56
2022-10-11T00:43:24.128Z,-23406.31
2022-10-11T00:45:56.762Z,-23400.97
2022-10-11T00:48:36.341Z,-23400.03
2022-10-11T00:51:07.974Z,-23410.19
2022-10-11T00:53:34.781Z,-23400.03
2022-10-11T00:56:08.790Z,-23398.31
2022-10-11T00:58:37.028Z,-23381.59
2022-10-11T01:01:03.773Z,-23370.47
2022-10-11T01:03:32.961Z,-23360.28
2022-10-11T01:05:59.544Z,-23371.91
2022-10-11T01:08:27.124Z,-23361.97
2022-10-11T01:10:54.041Z,-23368.03
2022-10-11T01:13:56.016Z,-23378.94
2022-10-11T01:16:22.654Z,-23386.44
2022-10-11T01:19:06.212Z,-23400.75
2022-10-11T01:21:48.066Z,-23408.75
2022-10-11T01:24:48.587Z,-23392.25
2022-10-11T01:27:39.921Z,-23385.00
2022-10-11T01:30:30.127Z,-23368.03
2022-10-11T01:33:22.032Z,-23354.22
2022-10-11T01:36:05.135Z,-23365.84
2022-10-11T01:38:31.943Z,-23352.78
2022-10-11T01:41:07.952Z,-23350.09
2022-10-11T01:43:36.145Z,-23343.34
2022-10-11T01:46:04.127Z,-23347.19
2022-10-11T01:48:30.920Z,-23350.59
2022-10-11T01:50:58.867Z,-23364.41
2022-10-11T01:53:59.238Z,-23370.69
2022-10-11T01:57:01.151Z,-23373.63
2022-10-11T01:59:34.978Z,-23381.59
2022-10-11T02:02:45.918Z,-23391.28
2022-10-11T02:05:17.292Z,-23394.69
2022-10-11T02:07:50.037Z,-23362.94
2022-10-11T02:10:40.781Z,-23351.56
2022-10-11T02:13:20.140Z,-23349.63
2022-10-11T02:15:49.240Z,-23355.91
2022-10-11T02:18:29.601Z,-23357.38
2022-10-11T02:20:58.839Z,-23359.81
2022-10-11T02:23:33.028Z,-23346.97
2022-10-11T02:26:01.476Z,-23340.41
2022-10-11T02:28:32.063Z,-23350.09
2022-10-11T02:31:00.757Z,-23370.69
2022-10-11T02:33:33.260Z,-23353.50
2022-10-11T02:36:07.157Z,-23343.81
2022-10-11T02:38:40.546Z,-23342.59
2022-10-11T02:41:21.414Z,-23338.00
2022-10-11T02:43:57.597Z,-23352.53
2022-10-11T02:46:25.293Z,-23361.50
2022-10-11T02:48:52.263Z,-23347.19
2022-10-11T02:51:18.842Z,-23356.66
2022-10-11T02:53:45.625Z,-23370.94
2022-10-11T02:56:12.119Z,-23372.63
2022-10-11T02:58:41.405Z,-23378.94
2022-10-11T03:01:08.285Z,-23349.63
2022-10-11T03:03:34.797Z,-23347.69
2022-10-11T03:06:03.601Z,-23351.81
2022-10-11T03:08:30.893Z,-23357.38
2022-10-11T03:10:57.420Z,-23351.56
2022-10-11T03:13:24.108Z,-23352.78
2022-10-11T03:16:07.405Z,-23339.69
2022-10-11T03:18:34.259Z,-23338.97
2022-10-11T03:21:00.960Z,-23353.25
2022-10-11T03:23:27.597Z,-23344.06
2022-10-11T03:25:54.319Z,-23361.25
2022-10-11T03:28:21.346Z,-23367.06
2022-10-11T03:30:49.024Z,-23379.44
2022-10-11T03:33:17.230Z,-23383.78
2022-10-11T03:35:45.749Z,-23379.44
2022-10-11T03:38:15.085Z,-23364.63
2022-10-11T03:40:43.090Z,-23355.44
2022-10-11T03:43:10.703Z,-23344.28
2022-10-11T03:45:37.549Z,-23348.19
2022-10-11T03:48:04.248Z,-23352.06
2022-10-11T03:50:31.476Z,-23360.28
2022-10-11T03:52:58.348Z,-23360.53
2022-10-11T03:55:24.881Z,-23373.13
2022-10-11T03:57:51.501Z,-23369.50
2022-10-11T04:00:18.166Z,-23376.75
2022-10-11T04:02:44.794Z,-23373.38
2022-10-11T04:05:12.743Z,-23351.56
2022-10-11T04:07:40.086Z,-23355.19
2022-10-11T04:10:07.406Z,-23352.06
2022-10-11T04:12:34.369Z,-23351.09
2022-10-11T04:15:00.864Z,-23370.94
2022-10-11T04:17:27.353Z,-23364.63
2022-10-11T04:19:54.068Z,-23343.34
2022-10-11T04:22:20.614Z,-23355.69
2022-10-11T04:24:47.122Z,-23349.63
2022-10-11T04:27:13.719Z,-23360.28
2022-10-11T04:29:40.264Z,-23385.97
2022-10-11T04:32:06.778Z,-23373.38
2022-10-11T04:34:33.412Z,-23378.44
2022-10-11T04:36:59.882Z,-23378.94
2022-10-11T04:39:26.415Z,-23366.34
2022-10-11T04:41:53.077Z,-23353.50
2022-10-11T04:44:19.578Z,-23331.94
2022-10-11T04:46:46.229Z,-23331.47
2022-10-11T04:49:12.877Z,-23334.59
2022-10-11T04:51:39.402Z,-23337.28
2022-10-11T04:54:06.076Z,-23348.91
2022-10-11T04:56:32.667Z,-23340.41
2022-10-11T04:58:59.151Z,-23350.84
2022-10-11T05:01:25.823Z,-23342.84
2022-10-11T05:03:52.507Z,-23350.09
2022-10-11T05:06:19.163Z,-23363.69
2022-10-11T05:08:45.729Z,-23362.94
2022-10-11T05:11:15.806Z,-23370.94
2022-10-11T05:13:43.887Z,-23376.03
2022-10-11T05:16:11.802Z,-23375.06
2022-10-11T05:18:40.053Z,-23366.09
2022-10-11T05:21:20.260Z,-23365.84
2022-10-11T05:23:48.300Z,-23364.16
2022-10-11T05:26:15.725Z,-23360.78
2022-10-11T05:28:42.469Z,-23356.91
2022-10-11T05:31:09.333Z,-23357.88
2022-10-11T05:33:36.428Z,-23358.34
2022-10-11T05:36:03.450Z,-23361.72
2022-10-11T05:38:30.386Z,-23356.41
2022-10-11T05:41:01.048Z,-23354.97
2022-10-11T05:43:28.447Z,-23358.34
2022-10-11T05:45:55.303Z,-23354.22
2022-10-11T05:48:22.011Z,-23369.25
2022-10-11T05:50:48.679Z,-23355.44
2022-10-11T05:53:15.416Z,-23360.28
2022-10-11T05:55:43.459Z,-23358.59
2022-10-11T05:58:15.030Z,-23360.78
2022-10-11T06:00:41.910Z,-23365.38
2022-10-11T06:03:11.320Z,-23356.91
2022-10-11T08:26:32.633Z,-23475.41
2022-10-11T08:29:03.338Z,-23468.13
2022-10-11T08:31:30.035Z,-23481.44
2022-10-11T08:33:57.529Z,-23489.94
2022-10-11T08:36:24.031Z,-23502.53
2022-10-11T08:38:50.621Z,-23501.31
2022-10-11T08:41:43.218Z,-23512.00
2022-10-11T08:45:05.563Z,-23510.78
2022-10-11T08:47:28.538Z,-23492.59
2022-10-11T08:49:56.564Z,-23482.19
2022-10-11T08:52:42.114Z,-23501.81
2022-10-11T08:55:20.028Z,-23508.59
2022-10-11T08:57:53.376Z,-23521.69
2022-10-11T09:00:21.299Z,-23516.84
2022-10-11T09:03:09.712Z,-23514.41
2022-10-11T09:05:49.822Z,-23520.72
2022-10-11T09:08:26.994Z,-23528.97
2022-10-11T09:11:15.391Z,-23536.97
2022-10-11T09:14:14.059Z,-23517.81
2022-10-11T09:17:05.571Z,-23519.50
2022-10-11T09:19:54.173Z,-23544.72
2022-10-11T09:22:45.314Z,-23547.63
2022-10-11T09:25:44.681Z,-23523.16
2022-10-11T09:28:33.075Z,-23497.47
2022-10-11T09:31:00.117Z,-23497.69
2022-10-11T09:33:33.986Z,-23489.44
2022-10-11T09:36:02.952Z,-23484.38
2022-10-11T09:38:43.148Z,-23489.94
2022-10-11T09:41:26.906Z,-23489.69
2022-10-11T09:43:53.479Z,-23483.63
2022-10-11T09:46:36.724Z,-23488.47
2022-10-11T09:49:08.895Z,-23496.97
2022-10-11T09:51:36.064Z,-23497.69
2022-10-11T09:54:05.615Z,-23500.84
2022-10-11T09:56:34.294Z,-23512.72
2022-10-11T09:59:27.637Z,-23527.28
2022-10-11T10:02:12.629Z,-23503.03
2022-10-11T10:05:00.309Z,-23528.47
2022-10-11T10:07:29.075Z,-23504.25
2022-10-11T10:09:56.113Z,-23503.28
2022-10-11T10:12:26.216Z,-23517.56
2022-10-11T10:15:07.393Z,-23510.78
2022-10-11T10:17:36.040Z,-23524.13
2022-10-11T10:20:05.581Z,-23537.22
2022-10-11T10:22:35.447Z,-23527.53
2022-10-11T10:25:08.170Z,-23523.88
2022-10-11T10:27:34.862Z,-23521.69
2022-10-11T10:30:07.717Z,-23532.59
2022-10-11T10:32:51.930Z,-23538.44
2022-10-11T10:35:32.459Z,-23543.53
2022-10-11T10:38:32.747Z,-23537.69
2022-10-11T10:41:04.667Z,-23529.94
2022-10-11T10:43:35.901Z,-23539.66
2022-10-11T10:46:21.728Z,-23528.00
2022-10-11T10:49:48.821Z,-23532.84
2022-10-11T10:52:24.239Z,-23549.81
2022-10-11T10:54:57.297Z,-23552.25
2022-10-11T10:57:31.860Z,-23554.44
2022-10-11T11:00:19.244Z,-23548.38
2022-10-11T11:02:57.083Z,-23590.09
2022-10-11T11:05:45.319Z,-23600.50
2022-10-11T11:08:36.084Z,-23593.97
2022-10-11T11:11:05.797Z,-23597.84
2022-10-11T11:13:55.374Z,-23587.16
2022-10-11T11:16:27.818Z,-23587.16
2022-10-11T11:19:13.498Z,-23597.84
2022-10-11T11:21:59.492Z,-23616.50
2022-10-11T11:24:38.311Z,-23611.19
2022-10-11T11:27:25.090Z,-23610.44
2022-10-11T11:30:29.892Z,-23604.63
2022-10-11T11:33:24.242Z,-23586.19
2022-10-11T11:35:54.073Z,-23571.88
2022-10-11T11:38:28.643Z,-23606.56
2022-10-11T11:41:02.184Z,-23627.44
2022-10-11T11:43:47.558Z,-23622.09
2022-10-11T11:46:20.644Z,-23645.38
2022-10-11T11:48:50.922Z,-23623.56
2022-10-11T11:51:38.332Z,-23628.88
2022-10-11T11:54:28.244Z,-23645.63
2022-10-11T11:57:18.932Z,-23638.09
2022-10-11T11:59:56.935Z,-23651.44
2022-10-11T12:02:38.096Z,-23649.25
2022-10-11T12:05:08.213Z,-23663.56
2022-10-11T12:07:48.016Z,-23657.53
2022-10-11T12:10:24.950Z,-23669.16
2022-10-11T12:13:06.854Z,-23674.25
2022-10-11T12:15:33.809Z,-23676.19
2022-10-11T12:18:04.691Z,-23652.41
2022-10-11T12:20:38.153Z,-23653.63
2022-10-11T12:23:30.431Z,-23644.91
2022-10-11T12:26:18.966Z,-23660.44
2022-10-11T12:29:00.592Z,-23648.53
2022-10-11T12:31:36.930Z,-23661.41
2022-10-11T12:34:09.586Z,-23665.28
2022-10-11T12:36:38.832Z,-23656.53
2022-10-11T12:39:20.904Z,-23668.91
2022-10-11T12:41:47.465Z,-23690.25
2022-10-11T12:44:26.958Z,-23703.13
2022-10-11T12:46:53.789Z,-23718.19
2022-10-11T12:49:32.345Z,-23708.22
2022-10-11T12:52:17.818Z,-23711.38
2022-10-11T12:55:14.907Z,-23701.66
2022-10-11T12:58:01.665Z,-23695.84
2022-10-11T13:00:33.915Z,-23696.34
2022-10-11T13:03:27.175Z,-23677.41
2022-10-11T13:06:01.408Z,-23708.47
2022-10-11T13:08:33.930Z,-23725.22
2022-10-11T13:11:09.917Z,-23719.38
2022-10-11T13:13:48.376Z,-23668.44
2022-10-11T13:16:18.758Z,-23678.13
2022-10-11T13:18:48.363Z,-23686.63
2022-10-11T13:21:24.161Z,-23684.69
2022-10-11T13:23:55.115Z,-23698.28
2022-10-11T13:26:21.702Z,-23718.66
2022-10-11T13:28:48.415Z,-23734.44
2022-10-11T13:31:15.123Z,-23727.88
2022-10-11T13:33:45.108Z,-23715.75
2022-10-11T13:36:20.752Z,-23712.81
2022-10-11T13:38:54.504Z,-23720.59
2022-10-11T13:41:21.870Z,-23721.31
2022-10-11T13:43:49.065Z,-23735.66
2022-10-11T13:46:21.856Z,-23738.56
2022-10-11T13:49:02.883Z,-23736.38
2022-10-11T13:51:35.569Z,-23747.28
2022-10-11T13:54:13.589Z,-23729.34
2022-10-11T13:56:43.391Z,-23727.16
2022-10-11T13:59:28.710Z,-23720.34
2022-10-11T14:02:01.286Z,-23708.22
2022-10-11T14:04:29.920Z,-23729.34
2022-10-11T14:07:02.929Z,-23723.25
2022-10-11T14:09:32.532Z,-23716.00
2022-10-11T14:12:28.759Z,-23721.09
2022-10-11T14:14:55.363Z,-23718.66
2022-10-11T14:17:40.611Z,-23715.75
2022-10-11T14:20:23.269Z,-23720.34
2022-10-11T14:22:54.164Z,-23720.84
2022-10-11T14:25:21.834Z,-23720.13
2022-10-11T14:27:49.345Z,-23717.69
2022-10-11T14:30:27.434Z,-23720.84
2022-10-11T14:32:56.648Z,-23722.78
2022-10-11T14:35:28.699Z,-23720.13
2022-10-11T14:37:55.341Z,-23710.88
2022-10-11T14:40:27.873Z,-23714.03
2022-10-11T14:42:55.020Z,-23710.16
2022-10-11T14:45:21.604Z,-23713.56
2022-10-11T14:47:49.054Z,-23715.50
2022-10-11T14:50:43.199Z,-23718.19
2022-10-11T14:53:11.849Z,-23716.97
2022-10-11T14:55:39.999Z,-23716.47
2022-10-11T14:58:08.010Z,-23710.88
2022-10-11T15:00:36.249Z,-23710.41
2022-10-11T15:03:04.864Z,-23708.94
2022-10-11T15:05:34.156Z,-23710.16
2022-10-11T15:08:01.733Z,-23707.25
2022-10-11T15:10:31.560Z,-23700.94
2022-10-11T15:12:58.211Z,-23698.28
2022-10-11T15:15:26.516Z,-23698.75
2022-10-11T15:17:55.482Z,-23694.38
2022-10-11T15:20:28.656Z,-23692.44
2022-10-11T15:22:56.825Z,-23692.94
2022-10-11T15:25:24.587Z,-23691.00
2022-10-11T15:27:52.016Z,-23691.00
2022-10-11T15:30:38.523Z,-23688.56
2022-10-11T15:33:07.006Z,-23686.63
2022-10-11T15:35:33.546Z,-23678.88
2022-10-11T15:38:00.480Z,-23684.19
2022-10-11T15:40:33.679Z,-23680.06
2022-10-11T15:43:00.706Z,-23679.81
2022-10-11T15:45:27.671Z,-23673.28
2022-10-11T15:47:54.586Z,-23675.47
2022-10-11T15:50:39.351Z,-23675.94
2022-10-11T15:53:28.610Z,-23672.78
2022-10-11T15:55:57.222Z,-23671.09
2022-10-11T15:58:27.469Z,-23672.06
2022-10-11T16:00:56.558Z,-23667.69
2022-10-11T16:03:26.771Z,-23666.72
2022-10-11T16:05:54.162Z,-23666.72
2022-10-11T16:08:21.318Z,-23661.16
2022-10-11T16:10:48.406Z,-23662.13
2022-10-11T16:13:15.496Z,-23662.59
2022-10-11T16:15:43.437Z,-23660.66
2022-10-11T16:18:13.143Z,-23659.44
2022-10-11T16:20:41.323Z,-23659.44
2022-10-11T16:23:08.183Z,-23658.00
2022-10-11T16:25:34.875Z,-23658.00
2022-10-11T16:28:02.485Z,-23658.72
2022-10-11T16:30:29.325Z,-23658.00
2022-10-11T16:32:56.269Z,-23654.13
2022-10-11T16:35:23.206Z,-23652.66
2022-10-11T16:37:50.090Z,-23652.41
2022-10-11T16:40:17.711Z,-23651.69
2022-10-11T16:42:45.979Z,-23654.13
2022-10-11T16:45:14.577Z,-23654.59
2022-10-11T16:47:42.515Z,-23651.44
2022-10-11T16:50:10.181Z,-23649.75
2022-10-11T16:52:36.835Z,-23647.31
2022-10-11T16:55:04.091Z,-23648.28
2022-10-11T16:57:30.670Z,-23645.38
2022-10-11T16:59:57.313Z,-23645.38
2022-10-11T17:02:31.387Z,-23643.91
2022-10-11T17:04:59.266Z,-23643.91
2022-10-11T17:07:26.352Z,-23641.50
2022-10-11T17:09:52.857Z,-23638.09
2022-10-11T17:12:22.040Z,-23636.66
2022-10-11T17:14:49.327Z,-23636.41
2022-10-11T17:17:16.682Z,-23635.91
2022-10-11T17:19:45.346Z,-23634.22
2022-10-11T17:22:14.453Z,-23632.28
2022-10-11T17:24:41.363Z,-23626.94
2022-10-11T17:27:08.246Z,-23622.59
2022-10-11T17:29:35.702Z,-23624.53
2022-10-11T17:32:02.572Z,-23621.59
2022-10-11T17:34:29.322Z,-23621.13
2022-10-11T17:36:55.883Z,-23618.22
2022-10-11T17:39:23.892Z,-23616.28
2022-10-11T17:41:50.890Z,-23617.25
2022-10-11T17:44:18.499Z,-23617.97
2022-10-11T17:46:45.654Z,-23617.72
2022-10-11T17:49:12.854Z,-23616.28
2022-10-11T17:51:40.279Z,-23613.13
2022-10-11T17:54:12.305Z,-23612.88
2022-10-11T17:56:40.714Z,-23610.69
2022-10-11T17:59:08.507Z,-23608.50
2022-10-11T18:01:36.133Z,-23605.38
2022-10-11T18:04:05.289Z,-23603.91
2022-10-11T18:06:37.490Z,-23602.44
2022-10-11T18:09:04.595Z,-23601.25
2022-10-11T18:11:31.643Z,-23594.44
2022-10-11T18:13:58.279Z,-23588.88
2022-10-11T18:16:29.504Z,-23586.69
2022-10-11T18:18:57.546Z,-23580.13
2022-10-11T18:21:33.650Z,-23584.03
2022-10-11T18:24:02.237Z,-23581.59
2022-10-11T18:26:30.789Z,-23578.44
2022-10-11T18:28:58.953Z,-23577.22
2022-10-11T18:31:30.356Z,-23577.72
2022-10-11T18:33:57.131Z,-23578.69
2022-10-11T18:36:27.267Z,-23573.34
2022-10-11T18:38:56.578Z,-23562.19
2022-10-11T18:41:24.985Z,-23557.59
2022-10-11T18:43:55.101Z,-23561.47
2022-10-11T18:46:22.629Z,-23561.94
2022-10-11T18:48:51.714Z,-23563.88
2022-10-11T18:51:23.915Z,-23564.84
2022-10-11T18:53:50.969Z,-23563.41
2022-10-11T18:56:20.719Z,-23564.84
2022-10-11T18:58:49.997Z,-23556.63
2022-10-11T19:01:21.740Z,-23558.31
2022-10-11T19:03:52.690Z,-23555.41
2022-10-11T19:06:21.730Z,-23559.03
2022-10-11T19:08:51.540Z,-23555.88
2022-10-11T19:11:22.887Z,-23549.34
2022-10-11T19:13:56.353Z,-23551.28
2022-10-11T19:16:23.279Z,-23551.75
2022-10-11T19:18:50.707Z,-23558.56
2022-10-11T19:21:17.350Z,-23553.47
2022-10-11T19:23:45.833Z,-23548.84
2022-10-11T19:26:15.267Z,-23544.97
2022-10-11T19:28:42.267Z,-23544.00
2022-10-11T19:31:11.570Z,-23543.53
2022-10-11T19:33:38.032Z,-23542.06
2022-10-11T19:36:06.853Z,-23536.72
2022-10-11T19:38:35.052Z,-23536.97
2022-10-11T19:41:02.715Z,-23540.13
2022-10-11T19:43:29.385Z,-23544.50
2022-10-11T19:46:07.314Z,-23542.53
2022-10-11T19:48:37.672Z,-23541.59
2022-10-11T19:51:07.455Z,-23542.53
2022-10-11T19:53:34.856Z,-23536.72
2022-10-11T19:56:03.662Z,-23538.91
2022-10-11T19:58:30.528Z,-23541.59
2022-10-11T20:01:04.865Z,-23544.97
2022-10-11T20:03:31.993Z,-23542.31
2022-10-11T20:06:06.562Z,-23544.50
2022-10-11T20:08:34.029Z,-23535.25
2022-10-11T20:11:02.939Z,-23530.44
2022-10-11T20:13:34.713Z,-23531.88
2022-10-11T20:16:07.120Z,-23533.56
2022-10-11T20:18:33.829Z,-23529.22
2022-10-11T20:21:03.446Z,-23534.31
2022-10-11T20:23:31.125Z,-23532.13
2022-10-11T20:26:01.442Z,-23531.88
2022-10-11T20:28:29.184Z,-23532.38
2022-10-11T20:30:55.722Z,-23536.97
2022-10-11T20:33:22.655Z,-23531.88
2022-10-11T20:35:58.448Z,-23537.22
2022-10-11T20:38:25.513Z,-23529.69
2022-10-11T20:40:51.993Z,-23532.84
2022-10-11T20:43:18.551Z,-23536.00
2022-10-11T20:45:45.262Z,-23538.91
2022-10-11T20:48:11.821Z,-23540.59
2022-10-11T20:50:38.641Z,-23544.72
2022-10-11T20:53:05.324Z,-23540.38
2022-10-11T20:55:31.800Z,-23530.44
2022-10-11T20:57:58.297Z,-23535.25
2022-10-11T21:00:25.039Z,-23529.94
2022-10-11T21:02:51.597Z,-23525.09
2022-10-11T21:05:18.105Z,-23528.00
2022-10-11T21:07:44.749Z,-23531.16
2022-10-11T21:10:11.283Z,-23532.13
2022-10-11T21:12:37.812Z,-23536.72
2022-10-11T21:15:04.657Z,-23536.72
2022-10-11T21:17:31.151Z,-23529.94
2022-10-11T21:19:59.024Z,-23530.44
2022-10-11T21:22:25.760Z,-23534.31
2022-10-11T21:24:52.266Z,-23532.38
2022-10-11T21:27:18.815Z,-23529.22
2022-10-11T21:29:45.426Z,-23527.53
2022-10-11T21:32:14.372Z,-23525.81
2022-10-11T21:34:41.136Z,-23522.66
2022-10-11T21:37:07.843Z,-23519.75
2022-10-11T21:39:34.374Z,-23520.72
2022-10-11T21:42:00.895Z,-23524.34
2022-10-11T21:44:27.713Z,-23522.19
2022-10-11T21:47:06.690Z,-23524.13
2022-10-11T21:49:33.964Z,-23521.69
2022-10-11T21:52:00.558Z,-23522.19
2022-10-11T21:54:27.413Z,-23522.44
2022-10-11T21:56:54.428Z,-23520.00
2022-10-11T21:59:20.987Z,-23516.59
2022-10-11T22:01:47.788Z,-23517.81
2022-10-11T22:04:14.446Z,-23518.06
2022-10-11T22:06:41.024Z,-23516.84
2022-10-11T22:09:08.821Z,-23514.41
2022-10-11T22:11:35.804Z,-23521.22
2022-10-11T22:14:02.381Z,-23516.38
2022-10-11T22:16:28.855Z,-23511.53
2022-10-11T22:18:55.678Z,-23514.91
2022-10-11T22:21:23.758Z,-23516.38
2022-10-11T22:23:52.783Z,-23514.91
2022-10-11T22:26:22.256Z,-23515.41
2022-10-11T22:28:49.253Z,-23511.03
2022-10-11T22:31:17.966Z,-23510.06
2022-10-11T22:36:18.897Z,-23517.34
2022-10-11T22:38:46.499Z,-23511.75
2022-10-11T22:41:13.183Z,-23520.25
2022-10-11T22:43:40.274Z,-23511.28
2022-10-11T22:46:07.373Z,-23513.94
2022-10-11T22:48:34.121Z,-23512.00
2022-10-11T22:51:00.903Z,-23513.69
2022-10-11T22:53:27.565Z,-23514.66
2022-10-11T22:55:54.225Z,-23519.50
2022-10-11T22:58:20.770Z,-23516.38
2022-10-11T23:00:47.342Z,-23526.53
2022-10-11T23:03:15.439Z,-23528.97
2022-10-11T23:05:42.317Z,-23519.25
2022-10-11T23:08:09.699Z,-23512.47
2022-10-11T23:10:40.257Z,-23507.63
2022-10-11T23:13:06.889Z,-23508.13
2022-10-11T23:15:33.424Z,-23505.44
2022-10-11T23:17:59.973Z,-23496.97
2022-10-11T23:20:26.970Z,-23498.91
2022-10-11T23:22:53.523Z,-23498.41
2022-10-11T23:25:20.054Z,-23506.91
2022-10-11T23:27:46.581Z,-23520.72
2022-10-11T23:30:13.836Z,-23514.19
2022-10-11T23:32:40.338Z,-23517.34
2022-10-11T23:35:07.208Z,-23523.63
2022-10-11T23:37:33.964Z,-23522.19
2022-10-11T23:40:00.503Z,-23524.13
2022-10-11T23:42:27.170Z,-23522.19
2022-10-11T23:44:54.349Z,-23528.00
2022-10-11T23:47:20.900Z,-23529.22
2022-10-11T23:49:47.448Z,-23516.84
2022-10-11T23:52:14.131Z,-23519.03
2022-10-11T23:54:40.607Z,-23517.81
2022-10-11T23:57:07.229Z,-23513.69
2022-10-11T23:59:33.767Z,-23516.13
